^^
Datos históricos de la estación: Murcia-Puente Tocinos
Diario Informe para Diciembre 8, 2019 Unidades:  Ingés    Métrico   Ambas
Diario Semanal Mensual Anual
  Máxima: Mínima: Promedio:
Temperatura: 67.5 °F 46.6 °F 55.4 °F
Punto de rocio: 50.2 °F 42.3 °F 45.9 °F
Humedad: 90% 41% 72%
Velocidad viento: 10.2mph 1.4mph 4.3mph
Racha viento: 21mph - -
Viento- - SSO
Presión: 30.2 in 30.1 in -
Precipitación: 0 in    
 
 
Tabla de datos para Diciembre 8, 2019
Hora Temperatura Punto de rocio Presión Viento Velocidad viento Racha viento Humedad Intensidad lluvia(por hora) Nubes
00:04 50.7 °F 46.8 °F 30.2 in SSE 4.3 mph 6 mph 86% 0 in
00:09 50.5 °F 46.8 °F 30.2 in Sur 4.3 mph 6 mph 87% 0 in
00:14 50.4 °F 46.9 °F 30.2 in Sur 3.9 mph 5 mph 88% 0 in
00:19 50.4 °F 46.9 °F 30.2 in SSO 3.6 mph 5 mph 88% 0 in
00:24 50.4 °F 46.9 °F 30.2 in SSO 3.3 mph 5.4 mph 88% 0 in
00:29 50.5 °F 47.1 °F 30.2 in SO 3.1 mph 6 mph 88% 0 in
00:34 50.5 °F 47.1 °F 30.2 in SO 3.1 mph 5.8 mph 88% 0 in
00:39 50.5 °F 47.1 °F 30.2 in SO 3.1 mph 6 mph 88% 0 in
00:44 50.5 °F 47.1 °F 30.2 in SO 2.7 mph 5 mph 88% 0 in
00:49 50.5 °F 47.1 °F 30.2 in SSO 2.4 mph 5 mph 88% 0 in
00:54 50.4 °F 46.9 °F 30.2 in Sur 2.7 mph 4.7 mph 88% 0 in
00:59 50.4 °F 46.9 °F 30.2 in Sur 2.9 mph 5 mph 88% 0 in
01:04 50.4 °F 46.8 °F 30.2 in SSO 3 mph 5 mph 88% 0 in
01:09 50.2 °F 46.8 °F 30.2 in Sur 3.1 mph 5 mph 88% 0 in
01:14 50 °F 46.6 °F 30.2 in SSE 2.7 mph 5 mph 87.8% 0 in
01:19 49.6 °F 46 °F 30.2 in SE 2.4 mph 4.7 mph 87% 0 in
01:24 49.5 °F 45.7 °F 30.2 in SSE 2.7 mph 5 mph 87.2% 0 in
01:29 48.9 °F 45.5 °F 30.2 in Sur 2.9 mph 5 mph 88% 0 in
01:34 48.7 °F 45.7 °F 30.2 in Sur 3 mph 5 mph 88.8% 0 in
01:39 48.7 °F 45.7 °F 30.2 in Sur 3.1 mph 5 mph 89% 0 in
01:44 48.7 °F 45.7 °F 30.2 in Sur 3 mph 5 mph 89% 0 in
01:49 48.7 °F 45.7 °F 30.2 in Sur 2.9 mph 5 mph 89% 0 in
01:54 48.7 °F 45.7 °F 30.2 in Sur 2.4 mph 4.7 mph 89.5% 0 in
01:59 48.7 °F 45.7 °F 30.2 in SSE 2 mph 5.8 mph 89.4% 0 in
02:04 48.6 °F 45.5 °F 30.2 in SSE 3.2 mph 6 mph 89% 0 in
02:09 48.6 °F 45.7 °F 30.2 in Sur 4 mph 6.2 mph 89.7% 0 in
02:14 48.7 °F 45.9 °F 30.2 in SSO 4.2 mph 8.1 mph 90% 0 in
02:19 48.7 °F 45.7 °F 30.2 in Sur 4.3 mph 8.1 mph 89.5% 0 in
02:24 48.7 °F 45.7 °F 30.2 in Sur 4.5 mph 7.4 mph 89% 0 in
02:29 48.7 °F 45.7 °F 30.2 in Sur 4.7 mph 7 mph 89% 0 in
02:34 48.7 °F 45.7 °F 30.2 in SSO 4.3 mph 7 mph 89% 0 in
02:39 48.7 °F 45.7 °F 30.2 in SSO 4 mph 6 mph 89% 0 in
02:44 48.7 °F 45.7 °F 30.2 in SO 4 mph 6.9 mph 89% 0 in
02:49 48.9 °F 45.9 °F 30.2 in SO 4 mph 7 mph 89% 0 in
02:54 48.9 °F 45.9 °F 30.2 in SSO 4 mph 6 mph 89% 0 in
02:59 48.9 °F 45.7 °F 30.2 in Sur 4 mph 6.2 mph 88.3% 0 in
03:04 48.7 °F 45.3 °F 30.2 in Sur 4.2 mph 8.1 mph 88% 0 in
03:09 48.6 °F 45.1 °F 30.2 in SO 4.3 mph 8 mph 88% 0 in
03:14 48.6 °F 45.1 °F 30.2 in SSO 4.8 mph 8.1 mph 88% 0 in
03:19 48.6 °F 45.1 °F 30.2 in SSO 5.2 mph 8 mph 88% 0 in
03:24 48.4 °F 45 °F 30.2 in SO 5.2 mph 8.1 mph 88.1% 0 in
03:29 48.4 °F 45.3 °F 30.2 in SO 5.2 mph 8 mph 89% 0 in
03:34 48.4 °F 45.3 °F 30.2 in SO 4.9 mph 7 mph 89% 0 in
03:39 48.4 °F 45.3 °F 30.2 in SO 4.7 mph 7 mph 89% 0 in
03:44 48.4 °F 45.3 °F 30.2 in SO 3.8 mph 5 mph 89% 0 in
03:49 48.4 °F 45.3 °F 30.2 in SO 3.1 mph 5 mph 89% 0 in
03:54 48.4 °F 45.3 °F 30.2 in OSO 2.7 mph 5 mph 89% 0 in
03:59 48.4 °F 45.3 °F 30.2 in OSO 2.4 mph 5 mph 89% 0 in
04:04 48.4 °F 45.3 °F 30.2 in SO 2.1 mph 4.6 mph 89% 0 in
04:09 48.2 °F 45 °F 30.2 in OSO 1.8 mph 5 mph 89% 0 in
04:14 48 °F 45 °F 30.2 in SO 2.4 mph 5.9 mph 89% 0 in
04:19 47.8 °F 44.8 °F 30.2 in OSO 2.9 mph 6 mph 89% 0 in
04:24 47.7 °F 44.6 °F 30.2 in OSO 3.3 mph 6 mph 89% 0 in
04:29 47.7 °F 44.6 °F 30.2 in SO 3.6 mph 5.2 mph 89% 0 in
04:34 47.7 °F 44.6 °F 30.2 in SO 3.3 mph 5 mph 89% 0 in
04:39 47.7 °F 44.8 °F 30.2 in SO 3.1 mph 5 mph 89.6% 0 in
04:44 47.7 °F 45 °F 30.2 in SO 3 mph 5 mph 90% 0 in
04:49 47.8 °F 44.8 °F 30.2 in SO 2.9 mph 5 mph 89.2% 0 in
04:54 47.8 °F 44.8 °F 30.2 in SO 2.6 mph 5 mph 89% 0 in
04:59 47.7 °F 44.6 °F 30.2 in SO 2.4 mph 5.2 mph 89% 0 in
05:04 47.7 °F 44.6 °F 30.2 in SO 2.8 mph 5.9 mph 89% 0 in
05:09 47.7 °F 44.6 °F 30.2 in SO 3.1 mph 6 mph 89% 0 in
05:14 47.5 °F 44.4 °F 30.2 in SO 2.5 mph 5 mph 89% 0 in
05:19 47.5 °F 44.4 °F 30.2 in SO 2 mph 4.6 mph 89% 0 in
05:24 47.7 °F 44.6 °F 30.2 in SO 2 mph 5 mph 89% 0 in
05:29 47.7 °F 44.6 °F 30.2 in SO 2 mph 5 mph 89% 0 in
05:34 47.7 °F 44.6 °F 30.2 in SO 2.2 mph 5.8 mph 89% 0 in
05:39 47.7 °F 44.6 °F 30.2 in SO 2.4 mph 6 mph 89% 0 in
05:44 47.7 °F 44.4 °F 30.2 in SO 3.3 mph 6 mph 88.3% 0 in
05:49 47.8 °F 44.4 °F 30.2 in Sur 4 mph 5.8 mph 88% 0 in
05:54 47.8 °F 44.2 °F 30.2 in Sur 3.8 mph 6 mph 87.3% 0 in
05:59 47.8 °F 44.1 °F 30.2 in Sur 3.6 mph 5 mph 87% 0 in
06:04 47.7 °F 44.1 °F 30.2 in Sur 2.5 mph 6.4 mph 87% 0 in
06:09 47.5 °F 43.9 °F 30.2 in Sur 1.8 mph 7 mph 87% 0 in
06:14 47.3 °F 43.7 °F 30.2 in SSO 3 mph 6 mph 87% 0 in
06:19 47.1 °F 43.5 °F 30.2 in SSO 4 mph 6.9 mph 87% 0 in
06:24 47.1 °F 43.3 °F 30.2 in SSO 4 mph 7 mph 87% 0 in
06:29 47.3 °F 43.5 °F 30.2 in SSO 4 mph 7 mph 87% 0 in
06:34 47.3 °F 43.7 °F 30.2 in SSO 4 mph 8.1 mph 87% 0 in
06:39 47.5 °F 43.9 °F 30.2 in SO 4 mph 8.1 mph 86.9% 0 in
06:44 47.7 °F 43.7 °F 30.2 in SO 4.7 mph 8 mph 86% 0 in
06:49 47.7 °F 43.7 °F 30.2 in OSO 5.2 mph 6 mph 85.9% 0 in
06:54 47.5 °F 43.2 °F 30.2 in SO 4 mph 6 mph 85.4% 0 in
06:59 47.1 °F 43.2 °F 30.2 in Oeste 3.1 mph 6 mph 86% 0 in
07:04 46.9 °F 43 °F 30.2 in OSO 3 mph 5 mph 86% 0 in
07:09 46.8 °F 43 °F 30.2 in Oeste 2.9 mph 5 mph 87% 0 in
07:14 46.6 °F 43 °F 30.2 in OSO 3 mph 5.8 mph 87% 0 in
07:19 46.6 °F 43 °F 30.2 in OSO 3.1 mph 6.4 mph 87.5% 0 in
07:24 46.6 °F 43.2 °F 30.2 in SO 3.6 mph 8.1 mph 88% 0 in
07:29 46.8 °F 43.3 °F 30.2 in OSO 4 mph 8 mph 87.8% 0 in
07:34 46.9 °F 43.2 °F 30.2 in OSO 3.1 mph 4.6 mph 87% 0 in
07:39 46.9 °F 43.3 °F 30.2 in OSO 2.4 mph 5 mph 87% 0 in
07:44 47.1 °F 43.3 °F 30.2 in OSO 1.9 mph 2 mph 86.7% 0 in
07:49 46.9 °F 43.2 °F 30.2 in OSO 1.4 mph 2.9 mph 86.3% 0 in
07:54 47.1 °F 43.3 °F 30.2 in OSO 1.4 mph 4.3 mph 87% 0 in
07:59 47.3 °F 43.5 °F 30.2 in SSO 1.4 mph 5 mph 87% 0 in
08:04 47.7 °F 43.9 °F 30.2 in SSO 2.4 mph 6.9 mph 86.5% 0 in
08:09 48.2 °F 44.1 °F 30.2 in SSO 3.1 mph 7 mph 85.3% 0 in
08:14 48.6 °F 43.9 °F 30.2 in SSO 3.8 mph 6 mph 84% 0 in
08:19 48.7 °F 43.9 °F 30.2 in SSO 4.3 mph 6 mph 83.1% 0 in
08:24 48.7 °F 43.7 °F 30.2 in SSO 4.3 mph 6.2 mph 83% 0 in
08:29 48.6 °F 43.5 °F 30.2 in Sur 4.3 mph 6.9 mph 83% 0 in
08:34 48.4 °F 43.5 °F 30.2 in Sur 4.3 mph 8.1 mph 83% 0 in
08:39 48.2 °F 43.2 °F 30.2 in Sur 4.3 mph 8 mph 83% 0 in
08:44 48 °F 43.2 °F 30.2 in SSE 4.8 mph 7 mph 83.2% 0 in
08:49 48 °F 43.3 °F 30.2 in Sur 5.2 mph 7 mph 84% 0 in
08:54 48 °F 43.3 °F 30.2 in Sur 4.7 mph 6.2 mph 84% 0 in
08:59 48 °F 43.5 °F 30.2 in Sur 4.3 mph 6.9 mph 84% 0 in
09:04 48.4 °F 43.7 °F 30.2 in Sur 4.5 mph 9.2 mph 83.8% 0 in
09:09 48.7 °F 43.7 °F 30.2 in SSO 4.7 mph 9 mph 83% 0 in
09:14 49.3 °F 44.1 °F 30.2 in SSO 5.1 mph 9.2 mph 82.3% 0 in
09:19 49.6 °F 44.1 °F 30.2 in SSO 5.4 mph 9.2 mph 81% 0 in
09:24 50.4 °F 44.2 °F 30.2 in SSO 5.3 mph 9.2 mph 79.8% 0 in
09:29 50.7 °F 44.4 °F 30.2 in SO 5.2 mph 9.2 mph 78.7% 0 in
09:34 51.1 °F 44.4 °F 30.2 in SO 5.2 mph 7.4 mph 77.9% 0 in
09:39 51.4 °F 44.4 °F 30.2 in SO 5.2 mph 8.5 mph 77% 0 in
09:44 51.8 °F 44.4 °F 30.2 in SO 4.9 mph 9 mph 76.2% 0 in
09:49 52.2 °F 44.6 °F 30.2 in SO 4.7 mph 9.7 mph 75.2% 0 in
09:54 52.3 °F 44.6 °F 30.2 in SSO 5 mph 10 mph 74.5% 0 in
09:59 52.7 °F 44.6 °F 30.2 in SSO 5.2 mph 8.5 mph 73.8% 0 in
10:04 53.1 °F 44.6 °F 30.2 in SO 5.2 mph 9 mph 73% 0 in
10:09 53.2 °F 44.8 °F 30.2 in SO 5.2 mph 8 mph 73% 0 in
10:14 53.4 °F 44.6 °F 30.2 in SO 5.3 mph 8.5 mph 72.2% 0 in
10:19 53.8 °F 45 °F 30.2 in SSO 5.4 mph 9.2 mph 72% 0 in
10:24 54 °F 45 °F 30.2 in SSO 5.3 mph 9.7 mph 71.5% 0 in
10:29 54.1 °F 45.1 °F 30.2 in SSO 5.2 mph 10 mph 71.4% 0 in
10:34 54.7 °F 45.3 °F 30.2 in SSO 5.2 mph 10.7 mph 70.6% 0 in
10:39 54.7 °F 45.1 °F 30.2 in SSO 5.2 mph 11 mph 70% 0 in
10:44 54.9 °F 45.5 °F 30.2 in SSO 6.1 mph 11 mph 71% 0 in
10:49 55 °F 45.5 °F 30.2 in SSO 6.9 mph 10.7 mph 70.1% 0 in
10:54 55.4 °F 45.7 °F 30.2 in SSO 6.5 mph 11 mph 69.6% 0 in
10:59 55.8 °F 45.7 °F 30.2 in SSO 6.2 mph 10.2 mph 68.6% 0 in
11:04 56.1 °F 45.7 °F 30.2 in SO 6.2 mph 10.4 mph 68% 0 in
11:09 56.5 °F 45.9 °F 30.2 in SO 6.2 mph 10 mph 67.7% 0 in
11:14 56.7 °F 45.9 °F 30.2 in SO 5.8 mph 11.5 mph 67% 0 in
11:19 56.8 °F 45.9 °F 30.2 in SO 5.4 mph 12 mph 66.4% 0 in
11:24 57.2 °F 46 °F 30.2 in SSO 5.8 mph 10.4 mph 66% 0 in
11:29 57.6 °F 45.9 °F 30.2 in SO 6.2 mph 11.4 mph 65% 0 in
11:34 57.7 °F 45.9 °F 30.2 in SSO 6.2 mph 12 mph 64.9% 0 in
11:39 57.9 °F 46.2 °F 30.2 in SSO 6.2 mph 10 mph 65% 0 in
11:44 58.1 °F 46.2 °F 30.2 in SO 5.7 mph 10.4 mph 64.2% 0 in
11:49 58.3 °F 46.2 °F 30.2 in SO 5.2 mph 10.4 mph 64% 0 in
11:54 58.6 °F 46.2 °F 30.2 in SO 5.6 mph 10 mph 63.3% 0 in
11:59 59 °F 46.2 °F 30.2 in SSO 5.9 mph 10.4 mph 62.5% 0 in
12:04 59 °F 45.9 °F 30.2 in SO 5.9 mph 10 mph 62% 0 in
12:09 59.2 °F 46.2 °F 30.2 in SSO 5.9 mph 10 mph 62% 0 in
12:14 59.5 °F 46.2 °F 30.2 in SSO 5.7 mph 9.2 mph 61.3% 0 in
12:19 59.7 °F 46 °F 30.2 in SSO 5.4 mph 9.2 mph 60.8% 0 in
12:24 60.1 °F 46.2 °F 30.2 in SSO 5.3 mph 9.2 mph 60% 0 in
12:29 60.3 °F 45.9 °F 30.2 in SO 5.2 mph 9.2 mph 59.1% 0 in
12:34 60.3 °F 46.2 °F 30.2 in SSO 5.3 mph 9 mph 59.6% 0 in
12:39 60.4 °F 46.2 °F 30.2 in SO 5.4 mph 8.1 mph 59.1% 0 in
12:44 61 °F 46 °F 30.2 in SSO 5.4 mph 9.2 mph 58.2% 0 in
12:49 61 °F 46.2 °F 30.2 in SSO 5.4 mph 9 mph 58% 0 in
12:54 61.2 °F 46.2 °F 30.2 in SSO 5.3 mph 10.4 mph 57.7% 0 in
12:59 61.3 °F 46 °F 30.2 in SSO 5.2 mph 10.4 mph 57% 0 in
13:04 61.3 °F 46 °F 30.2 in SSO 5.9 mph 10 mph 57% 0 in
13:09 61.3 °F 46 °F 30.2 in Sur 6.4 mph 8.1 mph 57.2% 0 in
13:14 61.7 °F 46 °F 30.2 in SSO 5.5 mph 10 mph 56.6% 0 in
13:19 62.1 °F 46 °F 30.2 in SSO 4.7 mph 10.4 mph 56% 0 in
13:24 62.2 °F 46.2 °F 30.2 in SSO 5 mph 9.2 mph 55.9% 0 in
13:29 62.2 °F 46 °F 30.2 in SSO 5.2 mph 9.2 mph 55.3% 0 in
13:34 62.2 °F 46.2 °F 30.2 in SSO 5.3 mph 9.2 mph 55.6% 0 in
13:39 62.4 °F 46.8 °F 30.2 in SSO 5.4 mph 9 mph 56.2% 0 in
13:44 63 °F 46.6 °F 30.2 in SSO 4.7 mph 8.1 mph 55.4% 0 in
13:49 63 °F 46.6 °F 30.2 in SSO 4 mph 8.1 mph 55.1% 0 in
13:54 63.1 °F 46.6 °F 30.2 in SO 4.4 mph 8.5 mph 55% 0 in
13:59 63.3 °F 46.2 °F 30.2 in SSO 4.7 mph 10.7 mph 53.8% 0 in
14:04 63.7 °F 46.2 °F 30.2 in SO 5.3 mph 12.3 mph 53% 0 in
14:09 63.7 °F 46.2 °F 30.2 in SSO 5.9 mph 13 mph 53% 0 in
14:14 63.9 °F 45.3 °F 30.2 in SO 6.7 mph 12.7 mph 51% 0 in
14:19 64.2 °F 43.9 °F 30.2 in SO 7.4 mph 13.8 mph 47.6% 0 in
14:24 64.6 °F 43.5 °F 30.2 in SO 7.4 mph 14 mph 46.6% 0 in
14:29 64.8 °F 43.7 °F 30.2 in OSO 7.4 mph 12.7 mph 46.3% 0 in
14:34 64.9 °F 43.2 °F 30.2 in OSO 7.5 mph 20.8 mph 45% 0 in
14:39 65.1 °F 42.4 °F 30.2 in OSO 7.6 mph 21 mph 43.6% 0 in
14:44 65.5 °F 42.6 °F 30.2 in OSO 9.1 mph 20 mph 43.5% 0 in
14:49 65.7 °F 42.4 °F 30.2 in OSO 10.2 mph 15 mph 43% 0 in
14:54 65.7 °F 42.3 °F 30.2 in Oeste 9.3 mph 13.8 mph 42.5% 0 in
14:59 65.8 °F 43.2 °F 30.2 in OSO 8.5 mph 14 mph 43.8% 0 in
15:04 65.8 °F 43 °F 30.2 in OSO 7.3 mph 11.8 mph 43.3% 0 in
15:09 66 °F 43.3 °F 30.2 in OSO 6.4 mph 13.8 mph 43.9% 0 in
15:14 65.8 °F 43.7 °F 30.1 in OSO 7 mph 14 mph 44.7% 0 in
15:19 65.8 °F 44.1 °F 30.1 in OSO 7.4 mph 10 mph 45% 0 in
15:24 66 °F 44.6 °F 30.1 in SSO 6.7 mph 10.7 mph 45.8% 0 in
15:29 66.2 °F 43.9 °F 30.1 in SO 6.2 mph 11 mph 44.6% 0 in
15:34 66.4 °F 44.4 °F 30.1 in SO 6.2 mph 10.4 mph 45% 0 in
15:39 66.6 °F 44.1 °F 30.1 in SO 6.2 mph 14 mph 44.3% 0 in
15:44 66.6 °F 43.2 °F 30.1 in SO 6.6 mph 14.5 mph 42.6% 0 in
15:49 66.7 °F 42.6 °F 30.1 in OSO 6.9 mph 15 mph 41.5% 0 in
15:54 66.7 °F 42.8 °F 30.1 in SO 7.6 mph 13 mph 41.6% 0 in
15:59 66.9 °F 42.6 °F 30.1 in SO 8.1 mph 13 mph 41.3% 0 in
16:04 67.1 °F 42.6 °F 30.1 in SO 6.8 mph 12.7 mph 41.1% 0 in
16:09 66.9 °F 42.4 °F 30.1 in SO 5.9 mph 13 mph 41% 0 in
16:14 66.9 °F 42.4 °F 30.1 in SSO 6.8 mph 10.4 mph 41.2% 0 in
16:19 67.1 °F 43.2 °F 30.1 in SO 7.4 mph 10 mph 42% 0 in
16:24 67.3 °F 43.3 °F 30.1 in SO 5.9 mph 9.2 mph 42% 0 in
16:29 67.5 °F 43.5 °F 30.1 in SSO 4.7 mph 9 mph 41.9% 0 in
16:34 67.3 °F 43.3 °F 30.1 in SSO 4.5 mph 9.2 mph 42% 0 in
16:39 67.3 °F 43.5 °F 30.1 in SSO 4.3 mph 9 mph 42.1% 0 in
16:44 67.3 °F 43.3 °F 30.1 in SSO 4.3 mph 7.4 mph 42% 0 in
16:49 67.3 °F 43.3 °F 30.1 in SSO 4.3 mph 7.6 mph 42% 0 in
16:54 67.3 °F 43.3 °F 30.1 in Sur 4.2 mph 8.1 mph 42% 0 in
16:59 67.1 °F 43.2 °F 30.1 in Sur 4 mph 8.1 mph 41.8% 0 in
17:04 67.1 °F 43.2 °F 30.1 in Sur 4.2 mph 8 mph 42.1% 0 in
17:09 66.9 °F 43.7 °F 30.1 in Sur 4.3 mph 7.4 mph 42.8% 0 in
17:14 66.7 °F 44.4 °F 30.1 in Sur 4.3 mph 7 mph 44.4% 0 in
17:19 66.6 °F 45 °F 30.1 in Sur 4.3 mph 7.4 mph 45.7% 0 in
17:24 66 °F 45.5 °F 30.1 in Sur 4.5 mph 7 mph 47.2% 0 in
17:29 65.8 °F 45.9 °F 30.1 in Sur 4.7 mph 7 mph 48.4% 0 in
17:34 65.5 °F 46 °F 30.1 in Sur 4.3 mph 6 mph 49.4% 0 in
17:39 65.1 °F 46.2 °F 30.1 in SSO 4 mph 6 mph 50.4% 0 in
17:44 64.9 °F 46.4 °F 30.1 in Sur 3.5 mph 5 mph 51.1% 0 in
17:49 64.6 °F 46.6 °F 30.1 in Sur 3.1 mph 5 mph 52% 0 in
17:54 64.2 °F 46.4 °F 30.1 in SSE 3 mph 5 mph 52.5% 0 in
17:59 63.9 °F 46.6 °F 30.1 in SE 2.9 mph 5 mph 53.5% 0 in
18:04 63.3 °F 47.1 °F 30.1 in SE 2.9 mph 5 mph 55.4% 0 in
18:09 62.8 °F 47.1 °F 30.1 in ESE 2.9 mph 5.2 mph 56.6% 0 in
18:14 62.4 °F 46.9 °F 30.1 in SE 2.3 mph 5 mph 57.1% 0 in
18:19 62.1 °F 47.1 °F 30.1 in SE 1.8 mph 5.2 mph 58% 0 in
18:24 61.7 °F 47.1 °F 30.2 in SE 2.4 mph 5.9 mph 58.9% 0 in
18:29 61.3 °F 47.1 °F 30.2 in SSE 2.9 mph 6 mph 59.1% 0 in
18:34 61.2 °F 47.3 °F 30.2 in Oeste 3 mph 5 mph 60% 0 in
18:39 61 °F 47.1 °F 30.2 in SO 3.1 mph 6.4 mph 60.2% 0 in
18:44 61 °F 47.8 °F 30.2 in SO 3.4 mph 10.4 mph 62% 0 in
18:49 61.2 °F 48.2 °F 30.2 in SSO 3.6 mph 10 mph 62.3% 0 in
18:54 61.2 °F 48.6 °F 30.2 in SSO 4 mph 7 mph 63.5% 0 in
18:59 60.8 °F 49.3 °F 30.2 in SSO 4.3 mph 9.2 mph 65.9% 0 in
19:04 60.4 °F 49.8 °F 30.2 in SSO 4.5 mph 9 mph 67.8% 0 in
19:09 60.1 °F 50 °F 30.2 in SSO 4.7 mph 10.4 mph 69.5% 0 in
19:14 59.7 °F 50 °F 30.2 in SO 5.1 mph 10 mph 70.5% 0 in
19:19 59.5 °F 50 °F 30.2 in SO 5.4 mph 9 mph 71.1% 0 in
19:24 59.2 °F 50.2 °F 30.2 in SO 4.7 mph 8 mph 72% 0 in
19:29 59 °F 50.2 °F 30.2 in SSO 4 mph 6 mph 72.2% 0 in
19:34 58.8 °F 50.2 °F 30.2 in SSO 3.4 mph 6 mph 73% 0 in
19:39 58.6 °F 50 °F 30.2 in SSO 2.9 mph 6 mph 73% 0 in
19:44 58.6 °F 50.2 °F 30.2 in Sur 2.9 mph 6.2 mph 73.4% 0 in
19:49 58.5 °F 50.2 °F 30.2 in Sur 2.9 mph 6.2 mph 74% 0 in
19:54 58.3 °F 50 °F 30.2 in SE 3.5 mph 6.9 mph 74% 0 in
19:59 57.7 °F 50 °F 30.2 in SE 4 mph 8.1 mph 75.1% 0 in
20:04 57.4 °F 49.8 °F 30.2 in SE 4.4 mph 8 mph 76% 0 in
20:09 57 °F 49.8 °F 30.2 in SSE 4.7 mph 8.1 mph 77% 0 in
20:14 56.7 °F 49.8 °F 30.2 in Sur 5 mph 8.1 mph 77.8% 0 in
20:19 56.7 °F 50 °F 30.2 in SSO 5.2 mph 8.1 mph 78.4% 0 in
20:24 56.8 °F 50.2 °F 30.2 in Sur 4.9 mph 8.1 mph 78.3% 0 in
20:29 56.8 °F 50.2 °F 30.2 in Sur 4.7 mph 7 mph 78% 0 in
20:34 56.8 °F 50.2 °F 30.2 in SSE 4.5 mph 6.2 mph 78% 0 in
20:39 56.8 °F 50.2 °F 30.2 in Sur 4.3 mph 9.2 mph 78% 0 in
20:44 56.7 °F 50 °F 30.2 in Sur 4.8 mph 9 mph 78% 0 in
20:49 56.7 °F 49.8 °F 30.2 in SSE 5.2 mph 8 mph 78% 0 in
20:54 56.7 °F 49.8 °F 30.2 in SSE 4.7 mph 8.5 mph 78% 0 in
20:59 56.5 °F 49.6 °F 30.2 in SSE 4.3 mph 9 mph 78% 0 in
21:04 56.5 °F 49.8 °F 30.2 in Sur 3.9 mph 7 mph 78.5% 0 in
21:09 56.1 °F 49.8 °F 30.2 in SSE 3.6 mph 6.9 mph 79% 0 in
21:14 56.1 °F 49.6 °F 30.2 in Sur 4 mph 7 mph 79% 0 in
21:19 56.1 °F 49.6 °F 30.2 in Sur 4.3 mph 7 mph 79% 0 in
21:24 56.1 °F 49.5 °F 30.2 in SSO 4.3 mph 8.1 mph 78.2% 0 in
21:29 56.5 °F 49.5 °F 30.2 in SSO 4.3 mph 8 mph 77% 0 in
21:34 56.7 °F 49.1 °F 30.2 in Sur 4.3 mph 7 mph 76% 0 in
21:39 56.7 °F 49.3 °F 30.2 in Sur 4.3 mph 6.9 mph 76% 0 in
21:44 56.7 °F 49.3 °F 30.2 in Sur 4.2 mph 7 mph 76% 0 in
21:49 56.7 °F 49.1 °F 30.2 in SSO 4 mph 6 mph 75.7% 0 in
21:54 56.8 °F 48.9 °F 30.2 in SO 4 mph 6 mph 75% 0 in
21:59 56.8 °F 48.7 °F 30.2 in SO 4 mph 5.9 mph 74.3% 0 in
22:04 57 °F 48.7 °F 30.2 in SO 3.8 mph 6.2 mph 74% 0 in
22:09 57 °F 48.7 °F 30.2 in SSO 3.6 mph 6 mph 74% 0 in
22:14 56.8 °F 48.7 °F 30.2 in ESE 3.2 mph 5.9 mph 74.4% 0 in
22:19 55.9 °F 48.6 °F 30.2 in ESE 2.9 mph 7.4 mph 76.1% 0 in
22:24 55 °F 48.6 °F 30.2 in ESE 3.5 mph 7 mph 78.6% 0 in
22:29 54.7 °F 48.6 °F 30.2 in Este 4 mph 5 mph 79.6% 0 in
22:34 54.7 °F 48.6 °F 30.2 in ESE 2.8 mph 4.6 mph 79.8% 0 in
22:39 54.9 °F 48.4 °F 30.2 in Sur 1.8 mph 5 mph 79% 0 in
22:44 54.9 °F 48.4 °F 30.2 in SSO 2.1 mph 5 mph 78.7% 0 in
22:49 55.2 °F 48.4 °F 30.2 in SSO 2.4 mph 5 mph 77.4% 0 in
22:54 55.8 °F 48.2 °F 30.2 in SSO 2.7 mph 5 mph 76.1% 0 in
22:59 55.8 °F 48.4 °F 30.2 in SSO 2.9 mph 4.6 mph 75.8% 0 in
23:04 55.9 °F 48.2 °F 30.2 in Sur 2.4 mph 5.8 mph 75% 0 in
23:09 56.1 °F 48 °F 30.2 in SSE 2 mph 6.9 mph 74.3% 0 in
23:14 56.3 °F 47.8 °F 30.2 in SSE 3.5 mph 8.5 mph 73.4% 0 in
23:19 56.5 °F 47.8 °F 30.2 in Sur 4.7 mph 9 mph 72.8% 0 in
23:24 56.7 °F 47.5 °F 30.2 in SSE 4.3 mph 6.9 mph 71.5% 0 in
23:29 56.8 °F 47.3 °F 30.2 in SSO 4 mph 7 mph 70.5% 0 in
23:34 57.4 °F 47.3 °F 30.2 in Sur 3.4 mph 6 mph 69.1% 0 in
23:39 57.7 °F 47.1 °F 30.2 in SO 2.9 mph 8.7 mph 67.8% 0 in
23:44 58.3 °F 47.3 °F 30.2 in SO 3.7 mph 12.7 mph 66.5% 0 in
23:49 59.2 °F 47.3 °F 30.2 in SO 4.3 mph 13 mph 64.9% 0 in
23:54 59.7 °F 47.3 °F 30.2 in OSO 5.3 mph 15 mph 63.6% 0 in
23:59 60.3 °F 47.3 °F 30.2 in SO 6.2 mph 15 mph 62.4% 0 in
Murcia-Puente Tocinos, España
Compliments of Weather Underground - 3 mb

La estación de MeteoMurcia.com, publica sus datos en los siguientes proyectos:

Weather Underground PWS IMURCIAP2 Meteoclimatic www.awekas.at

W3Counter
Web Analytics